createdAt,value
2018-10-04T00:02:28.472Z,99784.00
2018-10-04T00:04:58.046Z,99792.00
2018-10-04T00:07:27.160Z,99794.00
2018-10-04T00:09:56.184Z,99795.00
2018-10-04T00:12:25.341Z,99800.00
2018-10-04T00:14:54.641Z,99805.00
2018-10-04T00:17:23.908Z,99802.00
2018-10-04T00:19:52.992Z,99817.00
2018-10-04T00:22:22.030Z,99814.00
2018-10-04T00:24:51.127Z,99818.00
2018-10-04T00:27:20.165Z,99821.00
2018-10-04T00:29:49.265Z,99820.00
2018-10-04T00:32:18.356Z,99815.00
2018-10-04T00:34:47.468Z,99823.00
2018-10-04T00:37:16.552Z,99825.00
2018-10-04T00:39:45.596Z,99826.00
2018-10-04T00:42:14.716Z,99822.00
2018-10-04T00:44:44.449Z,99824.00
2018-10-04T00:47:18.665Z,99825.00
2018-10-04T00:49:49.308Z,99815.00
2018-10-04T00:52:18.392Z,99814.00
2018-10-04T00:54:47.484Z,99814.00
2018-10-04T00:57:16.544Z,99813.00
2018-10-04T00:59:45.622Z,99814.00
2018-10-04T01:02:14.968Z,99818.00
2018-10-04T01:04:44.072Z,99809.00
2018-10-04T01:07:13.168Z,99809.00
2018-10-04T01:09:42.264Z,99813.00
2018-10-04T01:12:11.332Z,99815.00
2018-10-04T01:14:40.453Z,99814.00
2018-10-04T01:17:09.459Z,99807.00
2018-10-04T01:19:39.564Z,99801.00
2018-10-04T01:22:09.443Z,99801.00
2018-10-04T01:24:38.548Z,99802.00
2018-10-04T01:27:07.672Z,99803.00
2018-10-04T01:29:36.709Z,99804.00
2018-10-04T01:32:05.736Z,99797.00
2018-10-04T01:34:34.816Z,99794.00
2018-10-04T01:37:03.905Z,99789.00
2018-10-04T01:39:32.948Z,99787.00
2018-10-04T01:42:02.012Z,99788.00
2018-10-04T01:44:31.088Z,99784.00
2018-10-04T01:47:00.192Z,99786.00
2018-10-04T01:49:30.041Z,99779.00
2018-10-04T01:51:59.108Z,99778.00
2018-10-04T01:54:28.340Z,99777.00
2018-10-04T01:56:57.828Z,99773.00
2018-10-04T01:59:26.898Z,99775.00
2018-10-04T02:01:56.160Z,99781.00
2018-10-04T02:04:25.341Z,99779.00
2018-10-04T02:06:54.400Z,99776.00
2018-10-04T02:09:23.512Z,99780.00
2018-10-04T02:11:54.633Z,99780.00
2018-10-04T02:14:23.619Z,99784.00
2018-10-04T02:16:52.765Z,99785.00
2018-10-04T02:19:21.821Z,99788.00
2018-10-04T02:21:50.928Z,99791.00
2018-10-04T02:24:20.032Z,99790.00
2018-10-04T02:26:49.133Z,99784.00
2018-10-04T02:29:18.152Z,99782.00
2018-10-04T02:31:47.388Z,99791.00
2018-10-04T02:34:16.520Z,99793.00
2018-10-04T02:36:45.582Z,99792.00
2018-10-04T02:39:14.656Z,99791.00
2018-10-04T02:41:43.680Z,99801.00
2018-10-04T02:44:12.777Z,99799.00
2018-10-04T02:46:42.100Z,99791.00
2018-10-04T02:49:11.300Z,99794.00
2018-10-04T02:51:40.676Z,99801.00
2018-10-04T02:54:13.876Z,99797.00
2018-10-04T02:56:48.369Z,99800.00
2018-10-04T02:59:18.440Z,99796.00
2018-10-04T03:01:47.417Z,99793.00
2018-10-04T03:04:16.676Z,99786.00
2018-10-04T03:06:45.977Z,99782.00
2018-10-04T03:09:15.221Z,99785.00
2018-10-04T03:11:44.564Z,99781.00
2018-10-04T03:14:13.788Z,99781.00
2018-10-04T03:16:42.887Z,99782.00
2018-10-04T03:19:12.432Z,99779.00
2018-10-04T03:21:42.025Z,99786.00
2018-10-04T03:24:11.125Z,99782.00
2018-10-04T03:26:41.040Z,99788.00
2018-10-04T03:29:10.304Z,99785.00
2018-10-04T03:31:39.400Z,99784.00
2018-10-04T03:34:08.484Z,99779.00
2018-10-04T03:36:37.630Z,99784.00
2018-10-04T03:39:08.336Z,99784.00
2018-10-04T03:41:37.416Z,99782.00
2018-10-04T03:44:06.556Z,99780.00
2018-10-04T03:46:35.644Z,99785.00
2018-10-04T03:49:04.657Z,99781.00
2018-10-04T03:51:33.724Z,99780.00
2018-10-04T03:54:02.832Z,99778.00
2018-10-04T03:56:31.901Z,99771.00
2018-10-04T03:59:00.984Z,99769.00
2018-10-04T04:01:30.284Z,99766.00
2018-10-04T04:03:59.357Z,99767.00
2018-10-04T04:06:28.360Z,99762.00
2018-10-04T04:08:57.513Z,99760.00
2018-10-04T04:11:26.576Z,99767.00
2018-10-04T04:13:56.225Z,99762.00
2018-10-04T04:16:25.412Z,99765.00
2018-10-04T04:18:54.477Z,99762.00
2018-10-04T04:21:23.573Z,99768.00
2018-10-04T04:23:53.921Z,99764.00
2018-10-04T04:26:23.033Z,99768.00
2018-10-04T04:28:52.433Z,99769.00
2018-10-04T04:31:21.818Z,99772.00
2018-10-04T04:33:50.929Z,99770.00
2018-10-04T04:36:20.131Z,99766.00
2018-10-04T04:38:49.583Z,99769.00
2018-10-04T04:41:18.665Z,99772.00
2018-10-04T04:43:47.809Z,99764.00
2018-10-04T04:46:17.492Z,99769.00
2018-10-04T04:48:46.557Z,99768.00
2018-10-04T04:51:15.612Z,99767.00
2018-10-04T04:53:45.260Z,99768.00
2018-10-04T04:56:14.364Z,99764.00
2018-10-04T04:58:43.509Z,99765.00
2018-10-04T05:01:12.577Z,99763.00
2018-10-04T05:03:41.640Z,99765.00
2018-10-04T05:06:10.774Z,99763.00
2018-10-04T05:08:40.808Z,99764.00
2018-10-04T05:11:09.860Z,99765.00
2018-10-04T05:13:38.964Z,99766.00
2018-10-04T05:16:08.309Z,99759.00
2018-10-04T05:18:37.292Z,99762.00
2018-10-04T05:21:06.408Z,99766.00
2018-10-04T05:23:35.538Z,99761.00
2018-10-04T05:26:04.643Z,99763.00
2018-10-04T05:28:33.728Z,99768.00
2018-10-04T05:31:02.800Z,99775.00
2018-10-04T05:33:31.921Z,99776.00
2018-10-04T05:36:01.017Z,99767.00
2018-10-04T05:38:30.136Z,99767.00
2018-10-04T05:40:59.176Z,99766.00
2018-10-04T05:43:28.220Z,99763.00
2018-10-04T05:45:57.317Z,99759.00
2018-10-04T05:48:26.412Z,99760.00
2018-10-04T05:50:56.120Z,99762.00
2018-10-04T05:53:25.230Z,99766.00
2018-10-04T05:55:55.312Z,99764.00
2018-10-04T05:58:24.366Z,99756.00
2018-10-04T06:00:53.529Z,99759.00
2018-10-04T06:03:22.590Z,99752.00
2018-10-04T06:05:51.641Z,99757.00
2018-10-04T06:08:20.737Z,99754.00
2018-10-04T06:10:49.832Z,99755.00
2018-10-04T06:13:18.906Z,99758.00
2018-10-04T06:15:47.964Z,99756.00
2018-10-04T06:18:17.012Z,99763.00
2018-10-04T06:20:46.137Z,99759.00
2018-10-04T06:23:15.170Z,99755.00
2018-10-04T06:25:44.253Z,99758.00
2018-10-04T06:28:13.288Z,99761.00
2018-10-04T06:30:42.388Z,99748.00
2018-10-04T06:33:11.460Z,99745.00
2018-10-04T06:35:40.499Z,99741.00
2018-10-04T06:38:09.776Z,99744.00
2018-10-04T06:40:38.825Z,99747.00
2018-10-04T06:43:08.189Z,99753.00
2018-10-04T06:45:37.265Z,99743.00
2018-10-04T06:48:06.344Z,99733.00
2018-10-04T06:50:35.440Z,99723.00
2018-10-04T06:53:04.494Z,99717.00
2018-10-04T06:55:33.619Z,99711.00
2018-10-04T06:58:02.700Z,99713.00
2018-10-04T07:00:31.848Z,99697.00
2018-10-04T07:03:00.968Z,99703.00
2018-10-04T07:05:30.041Z,99695.00
2018-10-04T07:07:59.092Z,99702.00
2018-10-04T07:10:28.177Z,99704.00
2018-10-04T07:12:57.284Z,99699.00
2018-10-04T07:15:26.343Z,99691.00
2018-10-04T07:17:55.456Z,99683.00
2018-10-04T07:20:24.583Z,99683.00
2018-10-04T07:22:53.708Z,99681.00
2018-10-04T07:25:22.772Z,99686.00
2018-10-04T07:27:51.870Z,99685.00
2018-10-04T07:30:20.985Z,99682.00
2018-10-04T07:32:50.661Z,99678.00
2018-10-04T07:35:19.757Z,99681.00
2018-10-04T07:37:48.853Z,99680.00
2018-10-04T07:40:18.176Z,99674.00
2018-10-04T07:42:47.352Z,99670.00
2018-10-04T07:45:16.684Z,99672.00
2018-10-04T07:47:45.724Z,99672.00
2018-10-04T07:50:14.775Z,99674.00
2018-10-04T07:52:43.888Z,99675.00
2018-10-04T07:55:12.968Z,99672.00
2018-10-04T07:57:42.033Z,99680.00
2018-10-04T08:00:11.202Z,99675.00
2018-10-04T08:02:40.577Z,99675.00
2018-10-04T08:05:09.720Z,99675.00
2018-10-04T08:07:38.840Z,99672.00
2018-10-04T08:10:07.927Z,99672.00
2018-10-04T08:12:37.041Z,99661.00
2018-10-04T08:15:06.449Z,99660.00
2018-10-04T08:17:35.516Z,99662.00
2018-10-04T08:20:04.590Z,99658.00
2018-10-04T08:22:33.688Z,99658.00
2018-10-04T08:25:02.763Z,99654.00
2018-10-04T08:27:31.887Z,99664.00
2018-10-04T08:30:00.931Z,99662.00
2018-10-04T08:32:30.009Z,99664.00
2018-10-04T08:34:59.104Z,99661.00
2018-10-04T08:37:28.176Z,99667.00
2018-10-04T08:39:57.249Z,99667.00
2018-10-04T08:42:26.371Z,99671.00
2018-10-04T08:44:55.381Z,99661.00
2018-10-04T08:47:24.476Z,99657.00
2018-10-04T08:49:53.552Z,99651.00
2018-10-04T08:52:27.856Z,99651.00
2018-10-04T08:55:01.560Z,99649.00
2018-10-04T08:57:30.692Z,99666.00
2018-10-04T08:59:59.776Z,99648.00
2018-10-04T09:02:28.909Z,99640.00
2018-10-04T09:04:57.980Z,99644.00
2018-10-04T09:07:28.202Z,99652.00
2018-10-04T09:09:59.160Z,99637.00
2018-10-04T09:12:29.789Z,99638.00
2018-10-04T09:14:58.907Z,99631.00
2018-10-04T09:17:28.555Z,99629.00
2018-10-04T09:19:58.174Z,99624.00
2018-10-04T09:22:27.252Z,99621.00
2018-10-04T09:24:56.336Z,99620.00
2018-10-04T09:27:25.405Z,99616.00
2018-10-04T09:29:59.761Z,99626.00
2018-10-04T09:32:28.881Z,99614.00
2018-10-04T09:34:58.077Z,99611.00
2018-10-04T09:37:27.149Z,99657.00
2018-10-04T09:39:56.253Z,99650.00
2018-10-04T09:42:25.316Z,99645.00
2018-10-04T09:44:54.407Z,99635.00
2018-10-04T09:47:29.840Z,99641.00
2018-10-04T09:49:59.779Z,99629.00
2018-10-04T09:52:28.920Z,99617.00
2018-10-04T09:55:03.289Z,99603.00
2018-10-04T09:57:32.391Z,99606.00
2018-10-04T10:00:07.241Z,99601.00
2018-10-04T10:02:42.283Z,99609.00
2018-10-04T10:05:12.628Z,99612.00
2018-10-04T10:07:41.912Z,99607.00
2018-10-04T10:10:11.340Z,99603.00
2018-10-04T10:12:41.085Z,99602.00
2018-10-04T10:15:10.099Z,99600.00
2018-10-04T10:17:39.584Z,99604.00
2018-10-04T10:20:09.305Z,99606.00
2018-10-04T10:22:38.588Z,99608.00
2018-10-04T10:25:08.349Z,99599.00
2018-10-04T10:27:37.448Z,99615.00
2018-10-04T10:30:06.801Z,99605.00
2018-10-04T10:32:36.331Z,99595.00
2018-10-04T10:35:05.821Z,99602.00
2018-10-04T10:37:35.339Z,99625.00
2018-10-04T10:40:04.503Z,99617.00
2018-10-04T10:42:33.596Z,99609.00
2018-10-04T10:45:02.749Z,99597.00
2018-10-04T10:47:31.949Z,99621.00
2018-10-04T10:50:01.076Z,99610.00
2018-10-04T10:52:30.143Z,99599.00
2018-10-04T10:54:59.232Z,99602.00
2018-10-04T10:57:32.394Z,99594.00
2018-10-04T11:00:01.916Z,99601.00
2018-10-04T11:02:31.632Z,99590.00
2018-10-04T11:05:00.836Z,99576.00
2018-10-04T11:07:30.028Z,99589.00
2018-10-04T11:09:59.130Z,99591.00
2018-10-04T11:12:28.172Z,99584.00
2018-10-04T11:14:57.276Z,99579.00
2018-10-04T11:17:27.020Z,99570.00
2018-10-04T11:19:56.149Z,99560.00
2018-10-04T11:22:25.241Z,99561.00
2018-10-04T11:24:54.324Z,99566.00
2018-10-04T11:27:23.565Z,99566.00
2018-10-04T11:29:52.656Z,99555.00
2018-10-04T11:32:21.717Z,99559.00
2018-10-04T11:34:50.764Z,99558.00
2018-10-04T11:37:19.904Z,99555.00
2018-10-04T11:39:48.992Z,99550.00
2018-10-04T11:42:18.111Z,99543.00
2018-10-04T11:44:52.577Z,99551.00
2018-10-04T11:47:32.765Z,99542.00
2018-10-04T11:50:02.132Z,99529.00
2018-10-04T11:52:31.185Z,99521.00
2018-10-04T11:55:00.220Z,99506.00
2018-10-04T11:57:29.348Z,99505.00
2018-10-04T11:59:58.392Z,99500.00
2018-10-04T12:02:28.563Z,99507.00
2018-10-04T12:04:57.968Z,99499.00
2018-10-04T12:07:27.065Z,99501.00
2018-10-04T12:09:56.124Z,99498.00
2018-10-04T12:12:25.269Z,99502.00
2018-10-04T12:14:54.292Z,99521.00
2018-10-04T12:17:23.332Z,99509.00
2018-10-04T12:19:52.429Z,99511.00
2018-10-04T12:22:21.497Z,99517.00
2018-10-04T12:24:50.589Z,99502.00
2018-10-04T12:27:19.724Z,99497.00
2018-10-04T12:29:48.825Z,99483.00
2018-10-04T12:32:17.925Z,99486.00
2018-10-04T12:34:47.693Z,99498.00
2018-10-04T12:37:16.788Z,99501.00
2018-10-04T12:39:45.884Z,99502.00
2018-10-04T12:42:14.955Z,99492.00
2018-10-04T12:44:44.087Z,99485.00
2018-10-04T12:47:13.159Z,99485.00
2018-10-04T12:49:42.376Z,99490.00
2018-10-04T12:52:11.496Z,99479.00
2018-10-04T12:54:40.568Z,99479.00
2018-10-04T12:57:09.752Z,99468.00
2018-10-04T12:59:38.840Z,99471.00
2018-10-04T13:02:07.945Z,99465.00
2018-10-04T13:04:37.184Z,99471.00
2018-10-04T13:07:06.576Z,99452.00
2018-10-04T13:09:35.448Z,99452.00
2018-10-04T13:12:05.692Z,99449.00
2018-10-04T13:14:34.716Z,99445.00
2018-10-04T13:17:03.862Z,99441.00
2018-10-04T13:19:32.968Z,99448.00
2018-10-04T13:22:02.040Z,99451.00
2018-10-04T13:24:31.060Z,99462.00
2018-10-04T13:27:00.152Z,99453.00
2018-10-04T13:29:29.232Z,99458.00
2018-10-04T13:31:58.296Z,99445.00
2018-10-04T13:34:27.393Z,99437.00
2018-10-04T13:36:56.424Z,99443.00
2018-10-04T13:39:25.484Z,99453.00
2018-10-04T13:41:54.588Z,99447.00
2018-10-04T13:44:23.692Z,99438.00
2018-10-04T13:46:52.785Z,99438.00
2018-10-04T13:49:21.893Z,99428.00
2018-10-04T13:51:50.979Z,99429.00
2018-10-04T13:54:20.028Z,99421.00
2018-10-04T13:56:49.581Z,99420.00
2018-10-04T13:59:18.713Z,99415.00
2018-10-04T14:01:47.816Z,99418.00
2018-10-04T14:04:16.956Z,99422.00
2018-10-04T14:06:46.052Z,99425.00
2018-10-04T14:09:15.180Z,99426.00
2018-10-04T14:11:44.268Z,99424.00
2018-10-04T14:14:13.369Z,99418.00
2018-10-04T14:16:42.480Z,99421.00
2018-10-04T14:19:11.588Z,99424.00
2018-10-04T14:21:40.672Z,99420.00
2018-10-04T14:24:09.985Z,99421.00
2018-10-04T14:26:39.060Z,99415.00
2018-10-04T14:29:08.320Z,99419.00
2018-10-04T14:31:37.760Z,99417.00
2018-10-04T14:34:07.332Z,99410.00
2018-10-04T14:36:36.401Z,99409.00
2018-10-04T14:39:06.052Z,99408.00
2018-10-04T14:41:35.058Z,99405.00
2018-10-04T14:44:04.101Z,99401.00
2018-10-04T14:46:33.153Z,99402.00
2018-10-04T14:49:02.281Z,99400.00
2018-10-04T14:51:31.500Z,99397.00
2018-10-04T14:54:00.524Z,99397.00
2018-10-04T14:56:29.661Z,99404.00
2018-10-04T14:58:58.743Z,99406.00
2018-10-04T15:01:27.837Z,99400.00
2018-10-04T15:03:57.338Z,99394.00
2018-10-04T15:06:26.439Z,99388.00
2018-10-04T15:08:55.496Z,99392.00
2018-10-04T15:11:24.730Z,99389.00
2018-10-04T15:13:53.776Z,99384.00
2018-10-04T15:16:23.388Z,99383.00
2018-10-04T15:18:52.472Z,99382.00
2018-10-04T15:21:21.500Z,99377.00
2018-10-04T15:23:50.621Z,99370.00
2018-10-04T15:26:19.749Z,99374.00
2018-10-04T15:28:48.913Z,99374.00
2018-10-04T15:31:18.289Z,99372.00
2018-10-04T15:33:47.433Z,99373.00
2018-10-04T15:36:16.545Z,99374.00
2018-10-04T15:38:45.969Z,99373.00
2018-10-04T15:41:15.058Z,99373.00
2018-10-04T15:43:44.309Z,99365.00
2018-10-04T15:46:13.387Z,99368.00
2018-10-04T15:48:42.464Z,99376.00
2018-10-04T15:51:11.584Z,99380.00
2018-10-04T15:53:40.681Z,99371.00
2018-10-04T15:56:09.800Z,99374.00
2018-10-04T15:58:38.952Z,99372.00
2018-10-04T16:01:08.172Z,99376.00
2018-10-04T16:03:37.321Z,99370.00
2018-10-04T16:06:06.385Z,99380.00
2018-10-04T16:08:35.563Z,99379.00
2018-10-04T16:11:04.681Z,99378.00
2018-10-04T16:13:33.923Z,99383.00
2018-10-04T16:16:02.836Z,99384.00
2018-10-04T16:18:32.112Z,99387.00
2018-10-04T16:21:01.205Z,99390.00
2018-10-04T16:23:30.232Z,99389.00
2018-10-04T16:25:59.309Z,99380.00
2018-10-04T16:28:28.348Z,99388.00
2018-10-04T16:30:57.500Z,99389.00
2018-10-04T16:33:26.608Z,99387.00
2018-10-04T16:35:55.736Z,99386.00
2018-10-04T16:38:24.919Z,99396.00
2018-10-04T16:40:53.908Z,99394.00
2018-10-04T16:43:22.972Z,99393.00
2018-10-04T16:45:52.093Z,99397.00
2018-10-04T16:48:21.392Z,99395.00
2018-10-04T16:50:50.471Z,99394.00
2018-10-04T16:53:19.508Z,99396.00
2018-10-04T16:55:48.622Z,99395.00
2018-10-04T16:58:17.933Z,99393.00
2018-10-04T17:00:47.120Z,99397.00
2018-10-04T17:03:16.247Z,99399.00
2018-10-04T17:05:45.325Z,99399.00
2018-10-04T17:08:14.465Z,99397.00
2018-10-04T17:10:43.572Z,99400.00
2018-10-04T17:13:12.641Z,99396.00
2018-10-04T17:15:41.712Z,99397.00
2018-10-04T17:18:11.426Z,99400.00
2018-10-04T17:20:40.992Z,99406.00
2018-10-04T17:23:10.100Z,99399.00
2018-10-04T17:25:39.257Z,99401.00
2018-10-04T17:28:08.320Z,99396.00
2018-10-04T17:30:37.416Z,99398.00
2018-10-04T17:33:06.565Z,99395.00
2018-10-04T17:35:35.634Z,99397.00
2018-10-04T17:38:04.734Z,99394.00
2018-10-04T17:40:34.138Z,99395.00
2018-10-04T17:43:03.208Z,99398.00
2018-10-04T17:45:32.287Z,99396.00
2018-10-04T17:48:01.421Z,99391.00
2018-10-04T17:50:30.517Z,99395.00
2018-10-04T17:52:59.613Z,99391.00
2018-10-04T17:55:29.221Z,99392.00
2018-10-04T17:57:58.261Z,99396.00
2018-10-04T18:00:27.328Z,99395.00
2018-10-04T18:02:56.425Z,99397.00
2018-10-04T18:05:25.464Z,99403.00
2018-10-04T18:07:54.596Z,99403.00
2018-10-04T18:10:23.636Z,99408.00
2018-10-04T18:12:52.785Z,99406.00
2018-10-04T18:15:21.937Z,99409.00
2018-10-04T18:17:51.161Z,99407.00
2018-10-04T18:20:20.232Z,99412.00
2018-10-04T18:22:49.372Z,99411.00
2018-10-04T18:25:18.412Z,99413.00
2018-10-04T18:27:47.561Z,99412.00
2018-10-04T18:30:16.686Z,99411.00
2018-10-04T18:32:45.793Z,99410.00
2018-10-04T18:35:14.809Z,99405.00
2018-10-04T18:37:43.850Z,99407.00
2018-10-04T18:40:12.922Z,99408.00
2018-10-04T18:42:42.033Z,99404.00
2018-10-04T18:45:11.106Z,99408.00
2018-10-04T18:47:40.212Z,99414.00
2018-10-04T18:50:09.441Z,99411.00
2018-10-04T18:52:38.524Z,99415.00
2018-10-04T18:55:07.600Z,99412.00
2018-10-04T18:57:36.684Z,99416.00
2018-10-04T19:00:05.901Z,99415.00
2018-10-04T19:02:34.909Z,99413.00
2018-10-04T19:05:03.984Z,99415.00
2018-10-04T19:07:33.089Z,99417.00
2018-10-04T19:10:02.356Z,99422.00
2018-10-04T19:12:31.461Z,99427.00
2018-10-04T19:15:00.533Z,99420.00
2018-10-04T19:17:29.673Z,99419.00
2018-10-04T19:19:58.724Z,99422.00
2018-10-04T19:22:27.841Z,99425.00
2018-10-04T19:24:56.857Z,99420.00
2018-10-04T19:27:25.960Z,99419.00
2018-10-04T19:29:55.049Z,99420.00
2018-10-04T19:32:24.152Z,99424.00
2018-10-04T19:34:53.204Z,99413.00
2018-10-04T19:37:22.293Z,99419.00
2018-10-04T19:39:51.396Z,99419.00
2018-10-04T19:42:20.480Z,99421.00
2018-10-04T19:44:49.576Z,99423.00
2018-10-04T19:47:18.608Z,99426.00
2018-10-04T19:49:47.777Z,99424.00
2018-10-04T19:52:16.861Z,99422.00
2018-10-04T19:54:46.572Z,99424.00
2018-10-04T19:57:15.664Z,99426.00
2018-10-04T19:59:45.180Z,99420.00
2018-10-04T20:02:14.288Z,99422.00
2018-10-04T20:04:43.361Z,99423.00
2018-10-04T20:07:12.424Z,99422.00
2018-10-04T20:09:41.648Z,99420.00
2018-10-04T20:12:10.656Z,99424.00
2018-10-04T20:14:39.776Z,99429.00
2018-10-04T20:17:09.249Z,99432.00
2018-10-04T20:19:38.264Z,99436.00
2018-10-04T20:22:12.197Z,99433.00
2018-10-04T20:24:41.304Z,99440.00
2018-10-04T20:27:10.708Z,99438.00
2018-10-04T20:29:40.344Z,99442.00
2018-10-04T20:32:09.904Z,99434.00
2018-10-04T20:34:39.309Z,99442.00
2018-10-04T20:37:08.436Z,99452.00
2018-10-04T20:39:37.501Z,99451.00
2018-10-04T20:42:06.549Z,99456.00
2018-10-04T20:44:35.584Z,99456.00
2018-10-04T20:47:05.068Z,99456.00
2018-10-04T20:49:34.098Z,99453.00
2018-10-04T20:52:03.188Z,99450.00
2018-10-04T20:54:32.240Z,99451.00
2018-10-04T20:57:01.264Z,99448.00
2018-10-04T20:59:30.752Z,99441.00
2018-10-04T21:01:59.832Z,99443.00
2018-10-04T21:04:28.920Z,99438.00
2018-10-04T21:06:58.189Z,99436.00
2018-10-04T21:09:27.204Z,99435.00
2018-10-04T21:11:56.264Z,99435.00
2018-10-04T21:14:25.348Z,99432.00
2018-10-04T21:16:54.409Z,99430.00
2018-10-04T21:19:23.610Z,99427.00
2018-10-04T21:21:52.716Z,99424.00
2018-10-04T21:24:21.832Z,99424.00
2018-10-04T21:26:50.881Z,99420.00
2018-10-04T21:29:20.039Z,99418.00
2018-10-04T21:31:49.093Z,99417.00
2018-10-04T21:34:18.164Z,99416.00
2018-10-04T21:36:47.256Z,99415.00
2018-10-04T21:39:16.505Z,99418.00
2018-10-04T21:41:45.592Z,99416.00
2018-10-04T21:44:14.697Z,99415.00
2018-10-04T21:46:43.792Z,99414.00
2018-10-04T21:49:12.890Z,99407.00
2018-10-04T21:51:41.984Z,99409.00
2018-10-04T21:54:11.032Z,99402.00
2018-10-04T21:56:40.072Z,99399.00
2018-10-04T21:59:09.185Z,99398.00
2018-10-04T22:01:38.261Z,99398.00
2018-10-04T22:04:07.688Z,99394.00
2018-10-04T22:06:36.836Z,99399.00
2018-10-04T22:09:08.837Z,99398.00
2018-10-04T22:11:37.972Z,99395.00
2018-10-04T22:14:07.620Z,99395.00
2018-10-04T22:16:36.645Z,99399.00
2018-10-04T22:19:05.696Z,99396.00
2018-10-04T22:21:34.804Z,99397.00
2018-10-04T22:24:03.937Z,99397.00
2018-10-04T22:26:33.130Z,99401.00
2018-10-04T22:29:02.256Z,99403.00
2018-10-04T22:31:31.349Z,99402.00
2018-10-04T22:34:00.448Z,99403.00
2018-10-04T22:36:29.496Z,99399.00
2018-10-04T22:38:58.565Z,99395.00
2018-10-04T22:41:27.621Z,99395.00
2018-10-04T22:43:56.680Z,99401.00
2018-10-04T22:46:25.764Z,99391.00
2018-10-04T22:48:55.884Z,99395.00
2018-10-04T22:51:24.985Z,99390.00
2018-10-04T22:53:54.077Z,99383.00
2018-10-04T22:56:23.236Z,99385.00
2018-10-04T22:58:52.320Z,99387.00
2018-10-04T23:01:21.383Z,99381.00
2018-10-04T23:03:50.555Z,99382.00
2018-10-04T23:06:19.659Z,99378.00
2018-10-04T23:08:48.669Z,99375.00
2018-10-04T23:11:17.915Z,99369.00
2018-10-04T23:13:46.996Z,99374.00
2018-10-04T23:16:16.397Z,99369.00
2018-10-04T23:18:45.812Z,99362.00
2018-10-04T23:21:14.900Z,99360.00
2018-10-04T23:23:43.961Z,99356.00
2018-10-04T23:26:13.100Z,99361.00
2018-10-04T23:28:42.152Z,99358.00
2018-10-04T23:31:11.228Z,99355.00
2018-10-04T23:33:40.321Z,99347.00
2018-10-04T23:36:09.376Z,99352.00
2018-10-04T23:38:38.464Z,99349.00
2018-10-04T23:41:07.580Z,99347.00
2018-10-04T23:43:36.638Z,99342.00
2018-10-04T23:46:05.684Z,99335.00
2018-10-04T23:48:34.766Z,99342.00
2018-10-04T23:51:03.853Z,99341.00
2018-10-04T23:53:33.284Z,99341.00
2018-10-04T23:56:02.324Z,99344.00
2018-10-04T23:58:31.396Z,99342.00
